Main page
METAR-TAF:

METAR-TAF

Airports :

Julius Nyerere International Airport

Dar es Salaam, Tanzania

latitude: 06-52S, longitude: 039-12E, elevation: 55 m

Current weather observation

The report was made 52 minutes ago, at 05:00 UTC
Wind 8 kt from the South
Temperature 24°C
Humidity 94%
Pressure 1018 hPa
Visibility: 8000 m
Broken clouds at a height of 1300 ft
fog in vicinity

METAR: HTDA 250500Z 17008KT 8000 VCFG BKN013 24/23 Q1018 NOSIG

Time: 08:52 (05:52 UTC)

Forecast

The report was made 52 minutes ago, at 05:00 UTC
Forecast valid from 25 at 06 UTC to 26 at 12 UTC
Wind 15 kt from the South/Southeast
Visibility 10 km or more
Broken clouds at a height of 2000 ft

TAF: HTDA 250500Z 2506/2612 15015KT 9999 BKN020

Weather observations and forecasts of more than 4000 airports (METAR and TAF reports).

The available stations are represented by yellow and red dots on the map.

Hover mouse over dot to see the name of the station.

Then click to see weather observations and forecasts.

To change the map : click on the green buttons with a black cross to zoom in, on the green button with a dash to zoom out, or on the green arrows for adjacent maps.


METAR-TAF: